Flight Track Log - Related Links

Times and Time Zones

All times are in EDT time to prevent confusion due to time zone crossing. See the CSN3252 flight status page for this flight to view local times or setup timezone preferences in your user account.

Time Position Orientation Groundspeed Altitude Reporting Facility
EDT Latitude Longitude Course Direction KTS MPH feet Rate Location/Type
Tue 12:25:00 AM 31.1539 121.2407 242° Southwest  Level Estimated
Tue 12:25:55 AM 31.2270 121.3262 323° Northwest 189 217 1,400  Level FlightAware ADS-B (ZSSS / SHA)
Tue 12:26:04 AM 31.2322 121.3191 303° West 209 241 1,500 857 Climbing FlightAware ADS-B (ZSSS / SHA)
Tue 12:26:09 AM 31.2344 121.3142 298° West 216 249 1,600 1,429 Climbing FlightAware ADS-B (ZSSS / SHA)
Tue 12:26:25 AM 31.2421 121.2967 297° West 233 268 2,000 2,483 Climbing FlightAware ADS-B (ZSSS / SHA)
Tue 12:26:38 AM 31.2485 121.2823 300° West 231 266 2,800 3,517 Climbing FlightAware ADS-B (ZSSS / SHA)
Tue 12:26:54 AM 31.2572 121.2661 302° West 236 272 3,700 2,824 Climbing FlightAware ADS-B (ZSSS / SHA)
Tue 12:27:12 AM 31.2682 121.2447 298° West 257 296 4,400 2,308 Climbing FlightAware ADS-B (ZSSS / SHA)
Tue 12:27:20 AM 31.2710 121.2372 289° West 259 298 4,700 3,000 Climbing FlightAware ADS-B (ZSSS / SHA)
Tue 12:27:24 AM 31.2720 121.2290 279° West 258 297 5,000 3,000 Climbing FlightAware ADS-B (ZSSS / SHA)
Tue 12:27:44 AM 31.2691 121.2060 245° Southwest 258 297 5,900 3,500 Climbing FlightAware ADS-B (ZSSS / SHA)
Tue 12:28:00 AM 31.2565 121.1838 236° Southwest 257 296 7,100 3,750 Climbing FlightAware ADS-B (ZSSS / SHA)
Tue 12:28:24 AM 31.2399 121.1564 236° Southwest 258 297 8,400 3,306 Climbing FlightAware ADS-B (ZSSS / SHA)
Tue 12:28:49 AM 31.2208 121.1287 219° Southwest 258 297 9,800 2,571 Climbing FlightAware ADS-B (ZSSS / SHA)
Tue 12:29:20 AM 31.1834 121.1182 176° South 299 344 10,800 2,286 Climbing FlightAware ADS-B (ZSSS / SHA)
Tue 12:30:13 AM 31.1098 121.1234 182° South 320 368 13,000 2,351 Climbing FlightAware ADS-B (ZSSS / SHA)
Tue 12:30:34 AM 31.0817 121.1141 210° Southwest 324 373 13,700 2,000 Climbing FlightAware ADS-B (ZSSS / SHA)
Tue 12:33:00 AM 30.9753 120.8838 242° Southwest  Level Estimated
Tue 12:34:00 AM 30.9315 120.7893 242° Southwest  Level Estimated
Tue 12:35:00 AM 30.8875 120.6949 242° Southwest  Level Estimated
Tue 12:36:00 AM 30.8436 120.6006 242° Southwest  Level Estimated
Tue 12:37:00 AM 30.7995 120.5064 241° Southwest  Level Estimated
Tue 12:38:00 AM 30.7554 120.4122 241° Southwest  Level Estimated
Tue 12:39:00 AM 30.7112 120.3182 241° Southwest  Level Estimated
Tue 12:40:00 AM 30.6670 120.2242 241° Southwest  Level Estimated
Tue 12:41:00 AM 30.6226 120.1303 241° Southwest  Level Estimated
Tue 12:42:00 AM 30.5783 120.0365 241° Southwest  Level Estimated
Tue 12:43:00 AM 30.5338 119.9428 241° Southwest  Level Estimated
Tue 12:44:00 AM 30.4893 119.8491 241° Southwest  Level Estimated
Tue 12:45:00 AM 30.4447 119.7556 241° Southwest  Level Estimated
Tue 12:46:00 AM 30.4000 119.6621 241° Southwest  Level Estimated
Tue 12:47:00 AM 30.3553 119.5687 241° Southwest  Level Estimated
Tue 12:48:00 AM 30.3105 119.4754 241° Southwest  Level Estimated
Tue 12:49:00 AM 30.2657 119.3822 241° Southwest  Level Estimated
Tue 12:50:00 AM 30.2207 119.2891 241° Southwest  Level Estimated
Tue 12:51:00 AM 30.1758 119.1961 241° Southwest  Level Estimated
Tue 12:52:00 AM 30.1307 119.1031 241° Southwest  Level Estimated
Tue 12:53:00 AM 30.0856 119.0103 241° Southwest  Level Estimated
Tue 12:54:00 AM 30.0404 118.9175 241° Southwest  Level Estimated
Tue 12:55:00 AM 29.9951 118.8248 241° Southwest  Level Estimated
Tue 12:56:00 AM 29.9498 118.7322 241° Southwest  Level Estimated
Tue 12:57:00 AM 29.9045 118.6396 241° Southwest  Level Estimated
Tue 12:58:00 AM 29.8590 118.5472 240° Southwest  Level Estimated
Tue 12:59:00 AM 29.8135 118.4548 240° Southwest  Level Estimated
Tue 01:00:00 AM 29.7679 118.3626 240° Southwest  Level Estimated
Tue 01:01:00 AM 29.7223 118.2704 240° Southwest  Level Estimated
Tue 01:02:00 AM 29.6766 118.1783 240° Southwest  Level Estimated
Tue 01:03:00 AM 29.6308 118.0863 240° Southwest  Level Estimated
Tue 01:04:00 AM 29.5850 117.9943 240° Southwest  Level Estimated
Tue 01:05:00 AM 29.5391 117.9025 240° Southwest  Level Estimated
Tue 01:06:00 AM 29.4932 117.8107 240° Southwest  Level Estimated
Tue 01:07:00 AM 29.4472 117.7190 240° Southwest  Level Estimated
Tue 01:08:00 AM 29.4011 117.6274 240° Southwest  Level Estimated
Tue 01:09:00 AM 29.3549 117.5359 240° Southwest  Level Estimated
Tue 01:10:00 AM 29.3087 117.4444 240° Southwest  Level Estimated
Tue 01:11:00 AM 29.2625 117.3531 240° Southwest  Level Estimated
Tue 01:12:00 AM 29.2162 117.2618 240° Southwest  Level Estimated
Tue 01:13:00 AM 29.1698 117.1706 240° Southwest  Level Estimated
Tue 01:14:00 AM 29.1233 117.0795 240° Southwest  Level Estimated
Tue 01:15:00 AM 29.0768 116.9884 240° Southwest  Level Estimated
Tue 01:16:00 AM 29.0302 116.8975 240° Southwest  Level Estimated
Tue 01:17:00 AM 28.9836 116.8066 240° Southwest  Level Estimated
Tue 01:18:00 AM 28.9369 116.7159 240° Southwest  Level Estimated
Tue 01:19:00 AM 28.8901 116.6252 240° Southwest  Level Estimated
Tue 01:20:00 AM 28.8433 116.5345 239° Southwest  Level Estimated
Tue 01:21:00 AM 28.7964 116.4440 239° Southwest  Level Estimated
Tue 01:22:00 AM 28.7495 116.3536 239° Southwest  Level Estimated
Tue 01:23:00 AM 28.7025 116.2632 239° Southwest  Level Estimated
Tue 01:24:00 AM 28.6555 116.1729 239° Southwest  Level Estimated
Tue 01:25:00 AM 28.6083 116.0827 239° Southwest  Level Estimated
Tue 01:26:00 AM 28.5612 115.9925 239° Southwest  Level Estimated
Tue 01:27:00 AM 28.5139 115.9025 239° Southwest  Level Estimated
Tue 01:28:00 AM 28.4666 115.8125 239° Southwest  Level Estimated
Tue 01:29:00 AM 28.4193 115.7226 239° Southwest  Level Estimated
Tue 01:30:00 AM 28.3718 115.6328 239° Southwest  Level Estimated
Tue 01:31:00 AM 28.3244 115.5431 239° Southwest  Level Estimated
Tue 01:32:00 AM 28.2768 115.4535 239° Southwest  Level Estimated
Tue 01:33:00 AM 28.2293 115.3639 239° Southwest  Level Estimated
Tue 01:34:00 AM 28.1816 115.2744 239° Southwest  Level Estimated
Tue 01:35:00 AM 28.1339 115.1850 239° Southwest  Level Estimated
Tue 01:36:00 AM 28.0861 115.0957 239° Southwest  Level Estimated
Tue 01:37:00 AM 28.0383 115.0064 239° Southwest  Level Estimated
Tue 01:38:00 AM 27.9904 114.9172 239° Southwest  Level Estimated
Tue 01:39:00 AM 27.9425 114.8281 239° Southwest  Level Estimated
Tue 01:40:00 AM 27.8945 114.7391 239° Southwest  Level Estimated
Tue 01:41:00 AM 27.8465 114.6502 239° Southwest  Level Estimated
Tue 01:42:00 AM 27.7983 114.5613 239° Southwest  Level Estimated
Tue 01:43:00 AM 27.7502 114.4726 239° Southwest  Level Estimated
Tue 01:44:00 AM 27.7020 114.3839 238° Southwest  Level Estimated
Tue 01:45:00 AM 27.6537 114.2953 238° Southwest  Level Estimated
Tue 01:46:00 AM 27.6053 114.2067 238° Southwest  Level Estimated
Tue 01:47:00 AM 27.5569 114.1183 238° Southwest  Level Estimated
Tue 01:48:00 AM 27.5085 114.0299 238° Southwest  Level Estimated
Tue 01:49:00 AM 27.4600 113.9416 238° Southwest  Level Estimated
Tue 01:50:00 AM 27.4114 113.8533 238° Southwest  Level Estimated
Tue 01:51:00 AM 27.3628 113.7652 238° Southwest  Level Estimated
Tue 01:52:00 AM 27.3141 113.6771 238° Southwest  Level Estimated
Tue 01:53:00 AM 27.2654 113.5891 238° Southwest  Level Estimated
Tue 01:54:00 AM 27.2167 113.5012 238° Southwest  Level Estimated
Tue 01:55:00 AM 27.1678 113.4134 238° Southwest  Level Estimated
Tue 01:56:00 AM 27.1189 113.3256 238° Southwest  Level Estimated
Tue 01:57:00 AM 27.0700 113.2379 238° Southwest  Level Estimated
Tue 01:58:00 AM 27.0210 113.1503 238° Southwest  Level Estimated
Tue 01:59:00 AM 26.9719 113.0628 238° Southwest  Level Estimated
Tue 02:00:00 AM 26.9228 112.9753 238° Southwest  Level Estimated
Tue 02:01:00 AM 26.8737 112.8879 238° Southwest  Level Estimated
Tue 02:02:00 AM 26.8244 112.8006 238° Southwest  Level Estimated
Tue 02:03:00 AM 26.7752 112.7134 238° Southwest  Level Estimated
Tue 02:04:00 AM 26.7259 112.6262 238° Southwest  Level Estimated
Tue 02:05:00 AM 26.6765 112.5392 238° Southwest  Level Estimated
Tue 02:06:00 AM 26.6271 112.4521 238° Southwest  Level Estimated
Tue 02:07:00 AM 26.5776 112.3652 238° Southwest  Level Estimated
Tue 02:08:00 AM 26.5280 112.2784 238° Southwest  Level Estimated
Tue 02:09:00 AM 26.4785 112.1916 237° Southwest  Level Estimated
Tue 02:10:00 AM 26.4288 112.1049 237° Southwest  Level Estimated
Tue 02:11:00 AM 26.3791 112.0183 237° Southwest  Level Estimated
Tue 02:12:00 AM 26.3294 111.9317 237° Southwest  Level Estimated
Tue 02:13:00 AM 26.2796 111.8452 237° Southwest  Level Estimated
Tue 02:14:00 AM 26.2298 111.7588 237° Southwest  Level Estimated
Tue 02:15:00 AM 26.1799 111.6725 237° Southwest  Level Estimated
Tue 02:16:00 AM 26.1299 111.5862 237° Southwest  Level Estimated
Tue 02:17:00 AM 26.0799 111.5000 237° Southwest  Level Estimated
Tue 02:18:00 AM 26.0299 111.4139 237° Southwest  Level Estimated
Tue 02:19:00 AM 25.9798 111.3279 237° Southwest  Level Estimated
Tue 02:20:00 AM 25.9296 111.2419 237° Southwest  Level Estimated
Tue 02:21:00 AM 25.8794 111.1560 237° Southwest  Level Estimated
Tue 02:22:00 AM 25.8291 111.0702 237° Southwest  Level Estimated
Tue 02:23:00 AM 25.7788 110.9845 237° Southwest  Level Estimated
Tue 02:24:00 AM 25.7285 110.8988 237° Southwest  Level Estimated
Tue 02:25:00 AM 25.6781 110.8132 237° Southwest  Level Estimated
Tue 02:26:00 AM 25.6276 110.7277 237° Southwest  Level Estimated
Tue 02:27:00 AM 25.5771 110.6422 237° Southwest  Level Estimated
Tue 02:28:00 AM 25.5266 110.5568 237° Southwest  Level Estimated
Tue 02:29:00 AM 25.4760 110.4715 237° Southwest  Level Estimated
Tue 02:30:00 AM 25.4253 110.3863 237° Southwest  Level Estimated
Tue 02:31:00 AM 25.3746 110.3011 237° Southwest  Level Estimated
Tue 02:32:00 AM 25.3239 110.2160 237° Southwest  Level Estimated
Tue 02:33:00 AM 25.2731 110.1310 237° Southwest  Level Estimated
Tue 02:34:00 AM 25.2222 110.0461 237° Southwest  Level Estimated
Tue 02:35:00 AM 25.2181 110.0392 236° Southwest  Level Estimated

Login

Don't have an account? Register now (free) for customized features, flight alerts, and more!